Terminal Aerodrome Forecast
Issued by NWS

Home | Current Version | Previous Version | Graphics & Text | Print | Product List | Glossary On
Versions: 1 2 3 4 5 6 7 8 9 10 11 12 13 14 15 16 17 18 19 20 21 22 23
000
FTUS43 KICT 061141
TAFHUT
TAF
KHUT 061141Z 0612/0712 17015G22KT P6SM VCTS OVC010CB
      TEMPO 0612/0613 -TSRA BKN015CB
     FM061500 18017G25KT P6SM OVC015
     FM070200 18015G22KT P6SM VCTS OVC015CB=

USA.gov is the U.S. government's official web portal to all federal, state and local government web resources and services.